createdAt,value
2018-12-03T00:00:26.948Z,12.93
2018-12-03T00:01:26.922Z,12.84
2018-12-03T00:02:26.898Z,12.99
2018-12-03T00:03:26.882Z,12.87
2018-12-03T00:04:26.855Z,12.88
2018-12-03T00:05:26.839Z,12.81
2018-12-03T00:06:26.824Z,12.99
2018-12-03T00:07:26.807Z,12.84
2018-12-03T00:08:26.785Z,12.84
2018-12-03T00:09:26.764Z,12.88
2018-12-03T00:10:26.743Z,12.87
2018-12-03T00:11:26.731Z,12.82
2018-12-03T00:12:26.705Z,12.93
2018-12-03T00:13:26.686Z,12.82
2018-12-03T00:14:26.665Z,12.88
2018-12-03T00:15:26.650Z,13.03
2018-12-03T00:16:26.624Z,13.00
2018-12-03T00:17:26.628Z,13.00
2018-12-03T00:18:26.592Z,12.92
2018-12-03T00:19:26.570Z,12.89
2018-12-03T00:20:26.557Z,12.97
2018-12-03T00:21:26.529Z,12.88
2018-12-03T00:22:26.512Z,12.84
2018-12-03T00:23:26.490Z,12.92
2018-12-03T00:24:26.471Z,12.87
2018-12-03T00:25:26.448Z,12.93
2018-12-03T00:26:26.432Z,12.87
2018-12-03T00:27:26.503Z,13.06
2018-12-03T00:28:26.388Z,12.85
2018-12-03T00:29:26.368Z,12.92
2018-12-03T00:30:26.349Z,12.96
2018-12-03T00:31:26.333Z,12.96
2018-12-03T00:32:26.316Z,12.89
2018-12-03T00:33:26.292Z,12.97
2018-12-03T00:34:26.275Z,12.87
2018-12-03T00:35:26.257Z,12.84
2018-12-03T00:36:26.240Z,12.87
2018-12-03T00:37:26.211Z,12.81
2018-12-03T00:38:27.175Z,12.88
2018-12-03T00:39:26.173Z,12.96
2018-12-03T00:40:26.147Z,12.97
2018-12-03T00:41:26.131Z,12.93
2018-12-03T00:42:26.119Z,13.07
2018-12-03T00:43:26.099Z,13.24
2018-12-03T00:44:26.080Z,13.27
2018-12-03T00:45:26.059Z,13.36
2018-12-03T00:46:26.043Z,13.30
2018-12-03T00:47:26.021Z,13.33
2018-12-03T00:48:26.002Z,13.29
2018-12-03T00:49:25.983Z,13.29
2018-12-03T00:50:25.963Z,13.29
2018-12-03T00:51:26.688Z,13.12
2018-12-03T00:52:25.918Z,13.18
2018-12-03T00:53:25.902Z,13.21
2018-12-03T00:54:25.883Z,13.30
2018-12-03T00:55:25.884Z,13.30
2018-12-03T00:56:25.890Z,13.24
2018-12-03T00:57:25.817Z,13.21
2018-12-03T00:58:25.795Z,13.04
2018-12-03T00:59:25.792Z,13.07
2018-12-03T01:00:25.759Z,13.02
2018-12-03T01:01:25.737Z,13.02
2018-12-03T01:02:25.722Z,12.92
2018-12-03T01:03:25.705Z,12.96
2018-12-03T01:04:25.684Z,12.97
2018-12-03T01:05:25.666Z,12.88
2018-12-03T01:06:25.645Z,12.88
2018-12-03T01:07:25.630Z,12.85
2018-12-03T01:08:25.600Z,12.84
2018-12-03T01:09:25.584Z,12.96
2018-12-03T01:10:26.194Z,12.85
2018-12-03T01:11:25.542Z,12.85
2018-12-03T01:12:25.526Z,12.85
2018-12-03T01:13:25.501Z,12.84
2018-12-03T01:14:25.488Z,12.75
2018-12-03T01:15:25.465Z,12.71
2018-12-03T01:16:26.194Z,12.71
2018-12-03T01:17:25.441Z,12.67
2018-12-03T01:18:25.412Z,12.63
2018-12-03T01:19:25.389Z,12.64
2018-12-03T01:20:25.370Z,12.64
2018-12-03T01:21:25.347Z,12.57
2018-12-03T01:22:25.328Z,12.62
2018-12-03T01:23:25.312Z,12.62
2018-12-03T01:24:25.286Z,12.51
2018-12-03T01:25:25.273Z,12.54
2018-12-03T01:26:26.190Z,12.54
2018-12-03T01:27:25.234Z,12.52
2018-12-03T01:28:25.221Z,12.56
2018-12-03T01:29:25.192Z,12.54
2018-12-03T01:30:25.166Z,12.52
2018-12-03T01:31:25.153Z,12.66
2018-12-03T01:32:25.133Z,12.57
2018-12-03T01:33:25.112Z,12.54
2018-12-03T01:34:25.083Z,12.56
2018-12-03T01:35:25.074Z,12.52
2018-12-03T01:36:25.049Z,12.64
2018-12-03T01:37:25.033Z,12.62
2018-12-03T01:38:25.012Z,12.63
2018-12-03T01:39:24.991Z,12.69
2018-12-03T01:40:24.971Z,12.60
2018-12-03T01:41:24.959Z,12.52
2018-12-03T01:42:24.944Z,12.54
2018-12-03T01:43:24.914Z,12.52
2018-12-03T01:44:24.892Z,12.54
2018-12-03T01:45:24.873Z,12.54
2018-12-03T01:46:24.886Z,12.54
2018-12-03T01:47:24.833Z,12.60
2018-12-03T01:48:24.820Z,12.49
2018-12-03T01:49:24.805Z,12.49
2018-12-03T01:50:24.824Z,12.54
2018-12-03T01:51:24.757Z,12.46
2018-12-03T01:52:24.737Z,12.48
2018-12-03T01:53:24.715Z,12.49
2018-12-03T01:54:24.692Z,12.46
2018-12-03T01:55:24.673Z,12.56
2018-12-03T01:56:24.656Z,12.44
2018-12-03T01:57:24.642Z,12.51
2018-12-03T01:58:24.620Z,12.52
2018-12-03T01:59:24.595Z,12.51
2018-12-03T02:00:24.576Z,12.56
2018-12-03T02:01:24.557Z,12.52
2018-12-03T02:02:24.534Z,12.52
2018-12-03T02:03:24.525Z,12.59
2018-12-03T02:04:24.499Z,12.52
2018-12-03T02:05:24.479Z,12.67
2018-12-03T02:06:24.459Z,12.67
2018-12-03T02:07:24.441Z,12.69
2018-12-03T02:08:24.424Z,12.64
2018-12-03T02:09:24.402Z,12.62
2018-12-03T02:10:24.382Z,12.62
2018-12-03T02:11:24.356Z,12.63
2018-12-03T02:12:24.338Z,12.69
2018-12-03T02:13:24.318Z,12.69
2018-12-03T02:14:24.302Z,12.60
2018-12-03T02:15:24.274Z,12.60
2018-12-03T02:16:24.310Z,12.57
2018-12-03T02:17:24.241Z,12.66
2018-12-03T02:18:24.218Z,12.52
2018-12-03T02:19:24.196Z,12.56
2018-12-03T02:20:24.180Z,12.54
2018-12-03T02:21:24.154Z,12.56
2018-12-03T02:22:24.152Z,12.54
2018-12-03T02:23:24.125Z,12.49
2018-12-03T02:24:24.100Z,12.49
2018-12-03T02:25:24.081Z,12.45
2018-12-03T02:26:24.062Z,12.51
2018-12-03T02:27:24.042Z,12.52
2018-12-03T02:28:24.026Z,12.48
2018-12-03T02:29:24.010Z,12.46
2018-12-03T02:30:23.985Z,12.42
2018-12-03T02:31:23.962Z,12.45
2018-12-03T02:32:23.937Z,12.46
2018-12-03T02:33:23.917Z,12.45
2018-12-03T02:34:23.905Z,12.41
2018-12-03T02:35:23.883Z,12.42
2018-12-03T02:36:23.865Z,12.42
2018-12-03T02:37:23.843Z,12.41
2018-12-03T02:38:23.821Z,12.44
2018-12-03T02:39:23.805Z,12.42
2018-12-03T02:40:23.779Z,12.42
2018-12-03T02:41:23.766Z,12.56
2018-12-03T02:42:23.741Z,12.49
2018-12-03T02:43:23.725Z,12.52
2018-12-03T02:44:23.699Z,12.54
2018-12-03T02:45:23.680Z,12.52
2018-12-03T02:46:23.680Z,12.66
2018-12-03T02:47:23.646Z,12.52
2018-12-03T02:48:23.627Z,12.56
2018-12-03T02:49:23.608Z,12.54
2018-12-03T02:50:23.583Z,12.56
2018-12-03T02:51:23.564Z,12.52
2018-12-03T02:52:23.557Z,12.49
2018-12-03T02:53:23.525Z,12.52
2018-12-03T02:54:23.506Z,12.51
2018-12-03T02:55:23.487Z,12.56
2018-12-03T02:56:23.465Z,12.52
2018-12-03T02:57:23.448Z,12.52
2018-12-03T02:58:23.426Z,12.52
2018-12-03T02:59:23.404Z,12.51
2018-12-03T03:00:23.436Z,12.48
2018-12-03T03:01:23.365Z,12.41
2018-12-03T03:02:23.350Z,12.48
2018-12-03T03:03:23.322Z,12.44
2018-12-03T03:04:23.308Z,12.44
2018-12-03T03:05:23.286Z,12.42
2018-12-03T03:06:23.270Z,12.45
2018-12-03T03:07:23.248Z,12.41
2018-12-03T03:08:23.226Z,12.42
2018-12-03T03:09:23.207Z,12.38
2018-12-03T03:10:23.197Z,12.30
2018-12-03T03:11:23.167Z,12.42
2018-12-03T03:12:23.155Z,12.44
2018-12-03T03:13:23.129Z,12.45
2018-12-03T03:14:23.101Z,12.49
2018-12-03T03:15:23.088Z,12.52
2018-12-03T03:16:23.066Z,12.52
2018-12-03T03:17:23.050Z,12.49
2018-12-03T03:18:23.033Z,12.48
2018-12-03T03:19:23.008Z,12.54
2018-12-03T03:20:22.989Z,12.51
2018-12-03T03:21:22.960Z,12.52
2018-12-03T03:22:22.951Z,12.54
2018-12-03T03:23:22.926Z,12.56
2018-12-03T03:24:22.906Z,12.56
2018-12-03T03:25:22.886Z,12.57
2018-12-03T03:26:22.868Z,12.54
2018-12-03T03:27:22.843Z,12.54
2018-12-03T03:28:22.824Z,12.56
2018-12-03T03:29:22.808Z,12.56
2018-12-03T03:30:22.793Z,12.66
2018-12-03T03:31:23.729Z,12.64
2018-12-03T03:32:22.751Z,12.62
2018-12-03T03:33:22.732Z,12.64
2018-12-03T03:34:22.712Z,12.71
2018-12-03T03:35:22.690Z,12.78
2018-12-03T03:36:22.668Z,12.71
2018-12-03T03:37:22.655Z,12.71
2018-12-03T03:38:22.625Z,12.74
2018-12-03T03:39:22.616Z,12.79
2018-12-03T03:40:22.591Z,12.75
2018-12-03T03:41:22.572Z,12.71
2018-12-03T03:42:22.555Z,12.81
2018-12-03T03:43:22.535Z,12.77
2018-12-03T03:44:22.514Z,12.74
2018-12-03T03:45:22.502Z,12.71
2018-12-03T03:46:22.469Z,12.74
2018-12-03T03:47:22.452Z,12.78
2018-12-03T03:48:22.433Z,12.81
2018-12-03T03:49:22.417Z,12.84
2018-12-03T03:50:22.391Z,12.85
2018-12-03T03:51:22.373Z,12.87
2018-12-03T03:52:22.354Z,12.88
2018-12-03T03:53:22.330Z,12.85
2018-12-03T03:54:25.338Z,13.02
2018-12-03T03:55:22.292Z,12.87
2018-12-03T03:56:22.277Z,12.87
2018-12-03T03:57:22.247Z,12.88
2018-12-03T03:58:22.233Z,12.89
2018-12-03T03:59:22.227Z,12.89
2018-12-03T04:00:22.194Z,12.95
2018-12-03T04:01:22.172Z,12.95
2018-12-03T04:02:22.156Z,13.00
2018-12-03T04:03:22.137Z,13.00
2018-12-03T04:04:22.118Z,12.97
2018-12-03T04:05:22.120Z,13.00
2018-12-03T04:06:22.079Z,12.99
2018-12-03T04:07:22.060Z,13.03
2018-12-03T04:08:22.040Z,13.02
2018-12-03T04:09:22.014Z,12.97
2018-12-03T04:10:22.002Z,12.85
2018-12-03T04:11:21.980Z,13.02
2018-12-03T04:12:21.954Z,13.07
2018-12-03T04:13:21.939Z,13.20
2018-12-03T04:14:21.922Z,13.15
2018-12-03T04:15:21.900Z,13.22
2018-12-03T04:16:21.877Z,13.22
2018-12-03T04:17:21.863Z,13.22
2018-12-03T04:18:21.841Z,13.20
2018-12-03T04:19:21.819Z,13.25
2018-12-03T04:20:21.797Z,13.27
2018-12-03T04:21:21.780Z,13.27
2018-12-03T04:22:21.764Z,13.29
2018-12-03T04:23:21.752Z,13.37
2018-12-03T04:24:21.796Z,13.25
2018-12-03T04:25:21.707Z,13.27
2018-12-03T04:26:21.688Z,13.18
2018-12-03T04:27:21.672Z,13.22
2018-12-03T04:28:21.652Z,13.15
2018-12-03T04:29:21.630Z,13.12
2018-12-03T04:30:21.611Z,13.09
2018-12-03T04:31:21.591Z,13.14
2018-12-03T04:32:21.572Z,13.22
2018-12-03T04:33:21.553Z,13.14
2018-12-03T04:34:21.534Z,13.17
2018-12-03T04:35:21.514Z,13.25
2018-12-03T04:36:21.495Z,13.37
2018-12-03T04:37:21.476Z,13.37
2018-12-03T04:38:21.456Z,13.29
2018-12-03T04:39:21.434Z,13.40
2018-12-03T04:40:21.419Z,13.47
2018-12-03T04:41:21.399Z,13.41
2018-12-03T04:42:21.378Z,13.47
2018-12-03T04:43:21.371Z,13.41
2018-12-03T04:44:21.339Z,13.49
2018-12-03T04:45:21.315Z,13.47
2018-12-03T04:46:21.317Z,13.41
2018-12-03T04:47:21.287Z,13.37
2018-12-03T04:48:21.271Z,13.21
2018-12-03T04:49:21.756Z,13.20
2018-12-03T04:50:21.226Z,13.06
2018-12-03T04:51:21.203Z,13.07
2018-12-03T04:52:21.209Z,13.04
2018-12-03T04:53:21.168Z,12.97
2018-12-03T04:54:21.158Z,13.00
2018-12-03T04:55:21.135Z,12.88
2018-12-03T04:56:21.110Z,13.03
2018-12-03T04:57:21.085Z,12.87
2018-12-03T04:58:21.063Z,12.87
2018-12-03T04:59:21.047Z,12.92
2018-12-03T05:00:21.054Z,12.92
2018-12-03T05:01:21.009Z,12.88
2018-12-03T05:02:20.983Z,12.85
2018-12-03T05:03:20.971Z,12.79
2018-12-03T05:04:20.950Z,12.79
2018-12-03T05:05:20.925Z,12.71
2018-12-03T05:06:20.915Z,12.71
2018-12-03T05:07:20.887Z,12.77
2018-12-03T05:08:20.865Z,12.64
2018-12-03T05:09:20.846Z,12.63
2018-12-03T05:10:20.828Z,12.64
2018-12-03T05:11:20.811Z,12.56
2018-12-03T05:12:20.805Z,12.49
2018-12-03T05:13:20.789Z,12.56
2018-12-03T05:14:20.747Z,12.54
2018-12-03T05:15:20.728Z,12.46
2018-12-03T05:16:20.709Z,12.42
2018-12-03T05:17:20.689Z,12.30
2018-12-03T05:18:20.676Z,12.42
2018-12-03T05:19:20.662Z,12.24
2018-12-03T05:20:20.633Z,12.30
2018-12-03T05:21:20.607Z,12.31
2018-12-03T05:22:20.587Z,12.30
2018-12-03T05:23:20.568Z,12.27
2018-12-03T05:24:20.562Z,12.44
2018-12-03T05:25:20.532Z,12.42
2018-12-03T05:26:20.507Z,12.45
2018-12-03T05:27:20.492Z,12.49
2018-12-03T05:28:20.470Z,12.64
2018-12-03T05:29:20.451Z,12.71
2018-12-03T05:30:20.432Z,12.78
2018-12-03T05:31:20.413Z,12.78
2018-12-03T05:32:20.394Z,12.71
2018-12-03T05:33:20.371Z,12.64
2018-12-03T05:34:20.352Z,12.67
2018-12-03T05:35:20.327Z,12.59
2018-12-03T05:36:20.310Z,12.52
2018-12-03T05:37:20.291Z,12.48
2018-12-03T05:38:20.267Z,12.37
2018-12-03T05:39:20.254Z,12.41
2018-12-03T05:40:20.228Z,12.46
2018-12-03T05:41:20.211Z,12.44
2018-12-03T05:42:20.190Z,12.31
2018-12-03T05:43:20.172Z,12.41
2018-12-03T05:44:20.151Z,12.30
2018-12-03T05:45:20.134Z,12.26
2018-12-03T05:46:20.119Z,12.29
2018-12-03T05:47:20.092Z,12.34
2018-12-03T05:48:20.071Z,12.34
2018-12-03T05:49:20.054Z,12.29
2018-12-03T05:50:20.030Z,12.27
2018-12-03T05:51:20.016Z,12.29
2018-12-03T05:52:19.990Z,12.30
2018-12-03T05:53:19.974Z,12.29
2018-12-03T05:54:19.952Z,12.30
2018-12-03T05:55:19.933Z,12.33
2018-12-03T05:56:19.910Z,12.27
2018-12-03T05:57:19.894Z,12.39
2018-12-03T05:58:19.875Z,12.49
2018-12-03T05:59:19.854Z,12.52
2018-12-03T06:00:19.838Z,12.66
2018-12-03T06:01:19.825Z,12.63
2018-12-03T06:02:19.793Z,12.63
2018-12-03T06:03:19.781Z,12.54
2018-12-03T06:04:19.754Z,12.54
2018-12-03T06:05:19.735Z,12.49
2018-12-03T06:06:19.717Z,12.49
2018-12-03T06:07:19.697Z,12.48
2018-12-03T06:08:19.681Z,12.54
2018-12-03T06:09:19.661Z,12.51
2018-12-03T06:10:19.645Z,12.67
2018-12-03T06:11:20.279Z,12.81
2018-12-03T06:12:19.607Z,12.74
2018-12-03T06:13:19.578Z,12.79
2018-12-03T06:14:19.562Z,12.67
2018-12-03T06:15:19.539Z,12.81
2018-12-03T06:16:19.517Z,12.70
2018-12-03T06:17:19.495Z,12.81
2018-12-03T06:18:19.481Z,12.82
2018-12-03T06:19:19.460Z,13.02
2018-12-03T06:20:19.447Z,13.03
2018-12-03T06:21:19.421Z,13.09
2018-12-03T06:22:19.407Z,13.14
2018-12-03T06:23:19.386Z,13.09
2018-12-03T06:24:19.389Z,13.07
2018-12-03T06:25:19.344Z,13.07
2018-12-03T06:26:19.344Z,13.00
2018-12-03T06:27:19.318Z,13.04
2018-12-03T06:28:19.360Z,13.03
2018-12-03T06:29:19.265Z,13.00
2018-12-03T06:30:19.254Z,13.02
2018-12-03T06:31:19.236Z,13.00
2018-12-03T06:32:19.213Z,13.07
2018-12-03T06:33:19.197Z,13.12
2018-12-03T06:34:19.194Z,13.07
2018-12-03T06:35:19.146Z,13.04
2018-12-03T06:36:19.136Z,13.02
2018-12-03T06:37:19.793Z,12.97
2018-12-03T06:38:19.100Z,13.03
2018-12-03T06:39:19.068Z,12.99
2018-12-03T06:40:19.051Z,12.93
2018-12-03T06:41:19.054Z,12.93
2018-12-03T06:42:19.024Z,12.88
2018-12-03T06:43:18.995Z,12.97
2018-12-03T06:44:18.976Z,12.99
2018-12-03T06:45:18.951Z,12.95
2018-12-03T06:46:18.941Z,12.85
2018-12-03T06:47:18.947Z,12.84
2018-12-03T06:48:18.899Z,12.82
2018-12-03T06:49:18.893Z,12.82
2018-12-03T06:50:18.856Z,12.84
2018-12-03T06:51:18.837Z,12.81
2018-12-03T06:52:18.840Z,12.77
2018-12-03T06:53:18.814Z,12.78
2018-12-03T06:54:18.766Z,12.71
2018-12-03T06:55:18.789Z,12.75
2018-12-03T06:56:18.731Z,12.81
2018-12-03T06:57:18.715Z,12.71
2018-12-03T06:58:18.709Z,12.82
2018-12-03T06:59:18.668Z,12.85
2018-12-03T07:00:18.659Z,12.79
2018-12-03T07:01:18.633Z,12.82
2018-12-03T07:02:18.611Z,12.79
2018-12-03T07:03:18.585Z,12.70
2018-12-03T07:04:18.586Z,12.69
2018-12-03T07:05:18.564Z,12.67
2018-12-03T07:06:18.546Z,12.66
2018-12-03T07:07:18.508Z,12.77
2018-12-03T07:08:18.489Z,12.71
2018-12-03T07:09:18.477Z,12.75
2018-12-03T07:10:18.454Z,12.77
2018-12-03T07:11:18.428Z,12.77
2018-12-03T07:12:18.409Z,12.84
2018-12-03T07:13:18.400Z,12.96
2018-12-03T07:14:18.397Z,12.87
2018-12-03T07:15:18.355Z,13.02
2018-12-03T07:16:18.326Z,12.85
2018-12-03T07:17:18.320Z,12.82
2018-12-03T07:18:18.291Z,12.96
2018-12-03T07:19:18.269Z,12.87
2018-12-03T07:20:18.264Z,12.96
2018-12-03T07:21:18.237Z,12.97
2018-12-03T07:22:18.387Z,12.99
2018-12-03T07:23:18.202Z,12.97
2018-12-03T07:24:18.169Z,12.97
2018-12-03T07:25:18.162Z,13.03
2018-12-03T07:26:18.141Z,13.07
2018-12-03T07:27:18.109Z,13.06
2018-12-03T07:28:18.099Z,12.97
2018-12-03T07:29:18.096Z,13.00
2018-12-03T07:30:18.066Z,12.99
2018-12-03T07:31:18.037Z,12.95
2018-12-03T07:32:18.043Z,12.92
2018-12-03T07:33:17.999Z,12.93
2018-12-03T07:34:18.806Z,12.99
2018-12-03T07:35:17.957Z,12.93
2018-12-03T07:36:17.941Z,12.93
2018-12-03T07:37:17.921Z,13.02
2018-12-03T07:38:17.944Z,12.93
2018-12-03T07:39:17.884Z,12.96
2018-12-03T07:40:17.868Z,12.93
2018-12-03T07:41:17.840Z,12.97
2018-12-03T07:42:17.819Z,12.97
2018-12-03T07:43:17.801Z,12.95
2018-12-03T07:44:17.785Z,13.03
2018-12-03T07:45:17.756Z,12.97
2018-12-03T07:46:17.740Z,12.97
2018-12-03T07:47:17.722Z,13.00
2018-12-03T07:48:17.699Z,13.07
2018-12-03T07:49:17.708Z,13.04
2018-12-03T07:50:17.662Z,13.00
2018-12-03T07:51:17.643Z,13.07
2018-12-03T07:52:17.624Z,13.06
2018-12-03T07:53:17.625Z,13.00
2018-12-03T07:54:17.596Z,13.00
2018-12-03T07:55:17.563Z,12.99
2018-12-03T07:56:17.547Z,12.99
2018-12-03T07:57:17.535Z,13.03
2018-12-03T07:58:17.509Z,13.06
2018-12-03T07:59:17.487Z,13.03
2018-12-03T08:00:17.476Z,13.06
2018-12-03T08:01:17.453Z,13.03
2018-12-03T08:02:17.437Z,13.04
2018-12-03T08:03:17.414Z,13.11
2018-12-03T08:04:17.395Z,13.04
2018-12-03T08:05:17.373Z,13.14
2018-12-03T08:06:17.350Z,13.06
2018-12-03T08:07:17.335Z,13.18
2018-12-03T08:08:17.318Z,13.12
2018-12-03T08:09:17.300Z,13.22
2018-12-03T08:10:17.283Z,13.15
2018-12-03T08:11:17.250Z,13.14
2018-12-03T08:12:17.234Z,13.09
2018-12-03T08:13:17.238Z,13.21
2018-12-03T08:14:17.203Z,13.30
2018-12-03T08:15:17.185Z,13.24
2018-12-03T08:16:17.166Z,13.27
2018-12-03T08:17:17.146Z,13.51
2018-12-03T08:18:17.122Z,13.62
2018-12-03T08:19:17.103Z,13.71
2018-12-03T08:20:17.084Z,13.70
2018-12-03T08:21:17.084Z,13.73
2018-12-03T08:22:17.135Z,13.73
2018-12-03T08:23:17.842Z,13.69
2018-12-03T08:24:17.010Z,13.80
2018-12-03T08:25:16.997Z,13.79
2018-12-03T08:26:16.984Z,13.77
2018-12-03T08:27:16.969Z,13.69
2018-12-03T08:28:16.934Z,13.65
2018-12-03T08:29:16.920Z,13.69
2018-12-03T08:30:16.904Z,13.65
2018-12-03T08:31:16.886Z,13.74
2018-12-03T08:32:16.859Z,13.76
2018-12-03T08:33:16.848Z,13.74
2018-12-03T08:34:16.821Z,13.80
2018-12-03T08:35:17.380Z,13.73
2018-12-03T08:36:16.776Z,13.74
2018-12-03T08:37:16.753Z,13.80
2018-12-03T08:38:16.741Z,13.81
2018-12-03T08:39:16.736Z,13.95
2018-12-03T08:40:16.715Z,13.95
2018-12-03T08:41:16.695Z,13.95
2018-12-03T08:42:16.666Z,13.95
2018-12-03T08:43:16.647Z,13.94
2018-12-03T08:44:16.632Z,13.92
2018-12-03T08:45:16.629Z,13.88
2018-12-03T08:46:16.591Z,13.96
2018-12-03T08:47:16.574Z,13.95
2018-12-03T08:48:16.565Z,13.94
2018-12-03T08:49:16.689Z,13.98
2018-12-03T08:50:16.519Z,14.01
2018-12-03T08:51:16.503Z,13.87
2018-12-03T08:52:16.484Z,13.92
2018-12-03T08:53:16.463Z,14.10
2018-12-03T08:54:16.441Z,13.92
2018-12-03T08:55:16.424Z,13.99
2018-12-03T08:56:16.409Z,13.91
2018-12-03T08:57:16.389Z,13.89
2018-12-03T08:58:16.370Z,14.09
2018-12-03T08:59:16.351Z,13.95
2018-12-03T09:00:16.329Z,13.96
2018-12-03T09:01:16.318Z,13.95
2018-12-03T09:02:16.307Z,13.84
2018-12-03T09:03:16.278Z,13.76
2018-12-03T09:04:16.261Z,13.76
2018-12-03T09:05:16.244Z,13.69
2018-12-03T09:06:16.219Z,13.69
2018-12-03T09:07:16.203Z,13.70
2018-12-03T09:08:16.183Z,13.54
2018-12-03T09:09:16.170Z,13.55
2018-12-03T09:10:16.148Z,13.52
2018-12-03T09:11:16.134Z,13.61
2018-12-03T09:12:16.110Z,13.59
2018-12-03T09:13:16.090Z,13.49
2018-12-03T09:14:16.077Z,13.55
2018-12-03T09:15:16.053Z,13.44
2018-12-03T09:16:16.039Z,13.51
2018-12-03T09:17:16.020Z,13.49
2018-12-03T09:18:15.998Z,13.51
2018-12-03T09:19:15.982Z,13.54
2018-12-03T09:20:15.953Z,13.49
2018-12-03T09:21:15.941Z,13.56
2018-12-03T09:22:15.924Z,13.56
2018-12-03T09:23:15.905Z,13.59
2018-12-03T09:24:15.886Z,13.69
2018-12-03T09:25:15.864Z,13.67
2018-12-03T09:26:15.848Z,13.67
2018-12-03T09:27:15.825Z,13.70
2018-12-03T09:28:15.812Z,13.74
2018-12-03T09:29:15.793Z,13.63
2018-12-03T09:30:15.774Z,13.77
2018-12-03T09:31:15.752Z,13.79
2018-12-03T09:32:15.736Z,13.84
2018-12-03T09:33:15.717Z,13.92
2018-12-03T09:34:15.704Z,13.98
2018-12-03T09:35:15.685Z,14.07
2018-12-03T09:36:15.664Z,13.94
2018-12-03T09:37:15.644Z,14.07
2018-12-03T09:38:15.625Z,14.02
2018-12-03T09:39:15.603Z,14.12
2018-12-03T09:40:15.587Z,14.02
2018-12-03T09:41:15.568Z,14.07
2018-12-03T09:42:15.552Z,14.13
2018-12-03T09:43:15.533Z,14.10
2018-12-03T09:44:15.521Z,14.10
2018-12-03T09:45:15.497Z,14.06
2018-12-03T09:46:15.478Z,14.04
2018-12-03T09:47:15.466Z,14.01
2018-12-03T09:48:15.444Z,13.94
2018-12-03T09:49:15.431Z,13.98
2018-12-03T09:50:15.413Z,13.92
2018-12-03T09:51:15.392Z,13.96
2018-12-03T09:52:15.377Z,13.98
2018-12-03T09:53:15.356Z,13.94
2018-12-03T09:54:15.332Z,13.92
2018-12-03T09:55:15.317Z,13.88
2018-12-03T09:56:15.299Z,13.81
2018-12-03T09:57:15.280Z,13.76
2018-12-03T09:58:15.259Z,13.81
2018-12-03T09:59:15.243Z,13.77
2018-12-03T10:00:15.228Z,13.80
2018-12-03T10:01:15.209Z,13.63
2018-12-03T10:02:15.196Z,13.77
2018-12-03T10:03:15.174Z,13.69
2018-12-03T10:04:15.154Z,13.71
2018-12-03T10:05:15.135Z,13.65
2018-12-03T10:06:15.119Z,13.71
2018-12-03T10:07:15.100Z,13.61
2018-12-03T10:08:15.078Z,13.70
2018-12-03T10:09:15.068Z,13.63
2018-12-03T10:10:15.041Z,13.67
2018-12-03T10:11:15.022Z,13.69
2018-12-03T10:12:18.185Z,13.71
2018-12-03T10:13:14.987Z,13.67
2018-12-03T10:14:15.071Z,13.63
2018-12-03T10:15:14.957Z,13.65
2018-12-03T10:16:14.939Z,13.71
2018-12-03T10:17:14.913Z,13.67
2018-12-03T10:18:14.897Z,13.65
2018-12-03T10:19:14.874Z,13.69
2018-12-03T10:20:14.864Z,13.71
2018-12-03T10:21:14.841Z,13.69
2018-12-03T10:22:14.826Z,13.69
2018-12-03T10:23:14.804Z,13.63
2018-12-03T10:24:14.781Z,13.69
2018-12-03T10:25:14.775Z,13.69
2018-12-03T10:26:14.745Z,13.71
2018-12-03T10:27:14.745Z,13.69
2018-12-03T10:28:14.708Z,13.69
2018-12-03T10:29:14.699Z,13.65
2018-12-03T10:30:14.672Z,13.70
2018-12-03T10:31:14.673Z,13.52
2018-12-03T10:32:14.639Z,13.49
2018-12-03T10:33:14.617Z,13.52
2018-12-03T10:34:14.595Z,13.49
2018-12-03T10:35:14.581Z,13.43
2018-12-03T10:36:15.361Z,13.41
2018-12-03T10:37:14.546Z,13.44
2018-12-03T10:38:14.522Z,13.54
2018-12-03T10:39:14.505Z,13.46
2018-12-03T10:40:14.486Z,13.43
2018-12-03T10:41:14.475Z,13.51
2018-12-03T10:42:14.454Z,13.49
2018-12-03T10:43:14.434Z,13.46
2018-12-03T10:44:14.409Z,13.46
2018-12-03T10:45:14.392Z,13.43
2018-12-03T10:46:14.380Z,13.49
2018-12-03T10:47:14.864Z,13.41
2018-12-03T10:48:14.335Z,13.30
2018-12-03T10:49:14.316Z,13.30
2018-12-03T10:50:14.296Z,13.33
2018-12-03T10:51:14.283Z,13.30
2018-12-03T10:52:14.261Z,13.24
2018-12-03T10:53:14.252Z,13.15
2018-12-03T10:54:14.229Z,13.15
2018-12-03T10:55:14.207Z,13.15
2018-12-03T10:56:14.191Z,13.09
2018-12-03T10:57:14.165Z,13.07
2018-12-03T10:58:14.871Z,13.04
2018-12-03T10:59:14.878Z,13.02
2018-12-03T11:00:14.110Z,13.07
2018-12-03T11:01:14.091Z,13.03
2018-12-03T11:02:14.076Z,13.06
2018-12-03T11:03:14.054Z,13.06
2018-12-03T11:04:14.038Z,13.09
2018-12-03T11:05:14.019Z,13.07
2018-12-03T11:06:13.994Z,13.04
2018-12-03T11:07:13.981Z,13.14
2018-12-03T11:08:13.963Z,13.11
2018-12-03T11:09:13.943Z,13.11
2018-12-03T11:10:13.930Z,13.18
2018-12-03T11:11:13.907Z,13.12
2018-12-03T11:12:13.879Z,13.20
2018-12-03T11:13:13.873Z,13.27
2018-12-03T11:14:13.848Z,13.40
2018-12-03T11:15:13.836Z,13.32
2018-12-03T11:16:13.813Z,13.46
2018-12-03T11:17:13.793Z,13.52
2018-12-03T11:18:13.780Z,13.69
2018-12-03T11:19:13.767Z,13.61
2018-12-03T11:20:13.738Z,13.55
2018-12-03T11:21:13.720Z,13.58
2018-12-03T11:22:13.694Z,13.69
2018-12-03T11:23:13.694Z,13.65
2018-12-03T11:24:13.678Z,13.52
2018-12-03T11:25:13.640Z,13.52
2018-12-03T11:26:13.633Z,13.49
2018-12-03T11:27:13.634Z,13.38
2018-12-03T11:28:13.585Z,13.27
2018-12-03T11:29:13.563Z,13.17
2018-12-03T11:30:13.543Z,13.11
2018-12-03T11:31:13.531Z,13.09
2018-12-03T11:32:13.518Z,12.88
2018-12-03T11:33:13.489Z,12.96
2018-12-03T11:34:13.476Z,12.88
2018-12-03T11:35:13.451Z,12.89
2018-12-03T11:36:13.435Z,12.79
2018-12-03T11:37:13.412Z,12.71
2018-12-03T11:38:13.390Z,12.74
2018-12-03T11:39:13.368Z,12.63
2018-12-03T11:40:13.352Z,12.52
2018-12-03T11:41:13.338Z,12.54
2018-12-03T11:42:13.349Z,12.63
2018-12-03T11:43:13.291Z,12.59
2018-12-03T11:44:13.273Z,12.52
2018-12-03T11:45:13.251Z,12.60
2018-12-03T11:46:13.235Z,12.60
2018-12-03T11:47:13.215Z,12.62
2018-12-03T11:48:13.196Z,12.63
2018-12-03T11:49:13.177Z,12.64
2018-12-03T11:50:13.156Z,12.63
2018-12-03T11:51:13.132Z,12.62
2018-12-03T11:52:13.116Z,12.62
2018-12-03T11:53:13.100Z,12.69
2018-12-03T11:54:13.075Z,12.63
2018-12-03T11:55:13.059Z,12.62
2018-12-03T11:56:13.040Z,12.52
2018-12-03T11:57:13.028Z,12.66
2018-12-03T11:58:13.002Z,12.67
2018-12-03T11:59:12.983Z,12.64
2018-12-03T12:00:12.958Z,12.67
2018-12-03T12:01:12.944Z,12.63
2018-12-03T12:02:12.919Z,12.64
2018-12-03T12:03:12.903Z,12.56
2018-12-03T12:04:12.884Z,12.57
2018-12-03T12:05:12.864Z,12.64
2018-12-03T12:06:12.848Z,12.52
2018-12-03T12:07:12.829Z,12.52
2018-12-03T12:08:12.812Z,12.52
2018-12-03T12:09:12.787Z,12.52
2018-12-03T12:10:12.771Z,12.56
2018-12-03T12:11:12.739Z,12.52
2018-12-03T12:12:12.726Z,12.63
2018-12-03T12:13:12.717Z,12.56
2018-12-03T12:14:12.690Z,12.56
2018-12-03T12:15:12.662Z,12.49
2018-12-03T12:16:12.644Z,12.51
2018-12-03T12:17:12.622Z,12.39
2018-12-03T12:18:12.610Z,12.44
2018-12-03T12:19:12.593Z,12.38
2018-12-03T12:20:12.572Z,12.42
2018-12-03T12:21:12.553Z,12.41
2018-12-03T12:22:12.532Z,12.38
2018-12-03T12:23:12.510Z,12.39
2018-12-03T12:24:12.494Z,12.44
2018-12-03T12:25:12.467Z,12.29
2018-12-03T12:26:12.446Z,12.30
2018-12-03T12:27:12.427Z,12.30
2018-12-03T12:28:12.403Z,12.23
2018-12-03T12:29:12.384Z,12.21
2018-12-03T12:30:12.374Z,12.19
2018-12-03T12:31:12.348Z,12.20
2018-12-03T12:32:12.326Z,12.15
2018-12-03T12:33:12.304Z,12.13
2018-12-03T12:34:12.291Z,12.09
2018-12-03T12:35:12.271Z,12.11
2018-12-03T12:36:12.252Z,12.01
2018-12-03T12:37:12.227Z,11.99
2018-12-03T12:38:12.210Z,12.04
2018-12-03T12:39:12.186Z,12.04
2018-12-03T12:40:12.179Z,12.04
2018-12-03T12:41:12.143Z,11.97
2018-12-03T12:42:12.130Z,11.97
2018-12-03T12:43:12.104Z,11.94
2018-12-03T12:44:12.088Z,11.96
2018-12-03T12:45:12.067Z,12.01
2018-12-03T12:46:12.050Z,12.12
2018-12-03T12:47:12.024Z,12.13
2018-12-03T12:48:12.008Z,12.04
2018-12-03T12:49:11.986Z,12.02
2018-12-03T12:50:11.963Z,12.05
2018-12-03T12:51:11.944Z,12.05
2018-12-03T12:52:11.924Z,12.04